Lake Thunderbird, Illinois
Current Conditions -  °F | °C
As of 3:35 PM on Saturday 22 Nov 2014 (Local Time) from KC75 Reporting Station
Overcast Overcast  
Wind Chill: 55°   Ceiling: 5000
Heat Index: 55°   Visibility: 10mi
Dew Point: 47°   Wind: 13mph
Humidity: 73%   Direction: 210°SSW
Pressure: 29.87"   Gusts: 17mph
Location:  41.1888°N, 89.4469°W
Report Text: KC75 222135Z AUTO 21011G15KT 10SM SCT038 OVC050 13/08 A2987 RMK AO2 T01300083
Loading
Personal Weather Stations






























Interactive Weather Map New forecast layout! Learn more

10-Day Weather Forecast

Advertisements
Track Severe Weather on mobile